Time;durP1;ratioP1;P1;durP2;ratioP2;P2;SDS_P1;SDS_P2;PMS_P1;PMS_P2;Temp;Humidity;BMP_temperature;BMP_pressure;BME280_temperature;BME280_humidity;BME280_pressure;Samples;Min_cycle;Max_cycle;Signal;HPM_P1;HPM_P2
2022/05/08 00:02:16;;;;;;;9.05;8.35;;;;;;;14.55;76.24;99588.38;1677175;85;21047;-66
2022/05/08 00:04:44;;;;;;;8.83;8.15;;;;;;;14.53;76.43;99593.11;1678623;85;21159;-69
2022/05/08 00:07:10;;;;;;;9.28;8.38;;;;;;;14.52;76.43;99588.77;1657957;85;21601;-68
2022/05/08 00:09:36;;;;;;;9.40;8.38;;;;;;;14.49;76.29;99591.02;1677386;85;21091;-69
2022/05/08 00:12:05;;;;;;;9.20;8.50;;;;;;;14.46;76.21;99586.88;1678809;85;20897;-64
2022/05/08 00:14:31;;;;;;;9.23;8.43;;;;;;;14.43;76.05;99589.94;1677002;85;21017;-65
2022/05/08 00:16:58;;;;;;;9.50;8.70;;;;;;;14.39;76.10;99592.66;1678890;85;21153;-64
2022/05/08 00:19:24;;;;;;;9.75;8.98;;;;;;;14.38;76.32;99592.86;1678217;85;20973;-65
2022/05/08 00:21:51;;;;;;;9.25;8.45;;;;;;;14.34;76.49;99592.41;1678826;85;20960;-65
2022/05/08 00:24:17;;;;;;;9.60;8.80;;;;;;;14.35;76.64;99591.91;1677535;85;21127;-65
2022/05/08 00:26:43;;;;;;;9.78;8.98;;;;;;;14.35;76.76;99587.89;1679078;85;20936;-65
2022/05/08 00:29:11;;;;;;;9.40;8.60;;;;;;;14.34;76.92;99585.72;1678115;85;21163;-66
2022/05/08 00:31:39;;;;;;;10.25;9.35;;;;;;;14.36;77.00;99588.22;1678691;85;21514;-65
2022/05/08 00:34:05;;;;;;;9.53;8.83;;;;;;;14.31;77.12;99586.59;1678018;85;21067;-65
2022/05/08 00:36:32;;;;;;;10.35;9.33;;;;;;;14.31;77.15;99583.45;1678653;85;20928;-65
2022/05/08 00:38:58;;;;;;;9.78;8.88;;;;;;;14.27;77.22;99584.80;1678247;85;21660;-65
2022/05/08 00:41:25;;;;;;;9.83;8.93;;;;;;;14.28;77.22;99583.80;1678471;85;21163;-65
2022/05/08 00:43:51;;;;;;;11.50;10.30;;;;;;;14.28;77.21;99589.66;1652034;84;20952;-65
2022/05/08 00:46:18;;;;;;;10.53;9.50;;;;;;;14.26;77.28;99588.48;1652255;85;21519;-65
2022/05/08 00:48:46;;;;;;;10.70;9.80;;;;;;;14.25;77.33;99585.52;1656472;85;21058;-64
2022/05/08 00:51:15;;;;;;;9.70;9.00;;;;;;;14.26;77.34;99584.47;1673040;85;20901;-65
2022/05/08 00:53:52;;;;;;;9.85;9.05;;;;;;;14.27;77.34;99590.66;1678782;85;21149;-65
2022/05/08 00:56:19;;;;;;;9.65;8.83;;;;;;;14.23;77.43;99585.69;1678644;85;21081;-64
2022/05/08 00:58:50;;;;;;;10.28;9.43;;;;;;;14.23;77.48;99586.22;1678367;85;21011;-66
2022/05/08 01:01:17;;;;;;;9.93;9.13;;;;;;;14.22;77.40;99584.55;1678673;85;20968;-69
2022/05/08 01:03:44;;;;;;;9.58;8.68;;;;;;;14.21;77.46;99583.72;1678853;85;21026;-69
2022/05/08 01:06:15;;;;;;;9.75;8.95;;;;;;;14.21;77.46;99580.20;1678695;85;21816;-67
2022/05/08 01:08:45;;;;;;;9.63;8.90;;;;;;;14.21;77.50;99580.20;1678080;85;21046;-65
2022/05/08 01:11:12;;;;;;;9.40;8.70;;;;;;;14.21;77.48;99579.70;1678749;85;21031;-64
2022/05/08 01:13:40;;;;;;;9.43;8.63;;;;;;;14.18;77.44;99582.75;1678637;85;20909;-65
2022/05/08 01:16:13;;;;;;;10.53;9.65;;;;;;;14.17;77.41;99582.95;1678803;85;21556;-65
2022/05/08 01:18:40;;;;;;;10.50;9.63;;;;;;;14.16;77.33;99580.78;1677432;85;21286;-64
2022/05/08 01:21:09;;;;;;;10.03;9.23;;;;;;;14.15;77.15;99580.48;1678547;85;20980;-64
2022/05/08 01:23:38;;;;;;;9.23;8.43;;;;;;;14.13;77.10;99581.70;1678724;85;21656;-64
2022/05/08 01:26:04;;;;;;;10.20;9.40;;;;;;;14.11;77.04;99583.70;1678923;85;20921;-64
2022/05/08 01:28:31;;;;;;;10.75;9.95;;;;;;;14.07;77.08;99587.80;1678317;85;20981;-64
2022/05/08 01:30:57;;;;;;;9.58;8.80;;;;;;;14.06;77.13;99587.47;1678122;85;21167;-64
2022/05/08 01:33:25;;;;;;;10.25;9.35;;;;;;;14.03;77.24;99590.02;1678584;85;20925;-64
2022/05/08 01:35:51;;;;;;;10.53;9.63;;;;;;;14.00;77.17;99585.03;1678747;85;21007;-63
2022/05/08 01:38:21;;;;;;;11.03;10.08;;;;;;;13.98;77.19;99588.42;1678629;85;21004;-66
2022/05/08 01:40:48;;;;;;;11.12;10.08;;;;;;;13.94;77.18;99590.33;1635954;87;20965;-66
2022/05/08 01:43:14;;;;;;;10.13;9.18;;;;;;;13.88;77.04;99590.57;1652790;86;21165;-67
2022/05/08 01:45:41;;;;;;;9.60;8.75;;;;;;;13.82;76.79;99594.52;1636684;87;21099;-68
2022/05/08 01:48:25;;;;;;;10.28;9.48;;;;;;;13.74;76.46;99592.76;1622590;87;20978;-69
2022/05/08 01:50:55;;;;;;;10.53;8.58;;;;;;;13.66;76.23;99588.05;1630840;87;20982;-67
2022/05/08 01:53:24;;;;;;;11.05;10.03;;;;;;;13.54;75.86;99589.86;1648188;87;21073;-66
2022/05/08 01:55:54;;;;;;;11.05;10.15;;;;;;;13.45;75.81;99589.63;1648181;87;21162;-67
2022/05/08 01:58:22;;;;;;;11.57;10.53;;;;;;;13.41;76.05;99586.18;1648041;87;21526;-63
2022/05/08 02:00:49;;;;;;;11.28;10.23;;;;;;;13.37;76.44;99585.74;1647858;85;20929;-67
2022/05/08 02:03:15;;;;;;;10.65;9.75;;;;;;;13.36;76.73;99586.74;1648175;87;20969;-66
2022/05/08 02:05:42;;;;;;;10.75;9.70;;;;;;;13.35;76.95;99589.08;1647730;87;21091;-69
2022/05/08 02:08:11;;;;;;;10.63;9.73;;;;;;;13.35;77.02;99588.25;1654812;85;21278;-66
2022/05/08 02:10:40;;;;;;;10.95;9.95;;;;;;;13.31;76.95;99593.16;1647609;87;20968;-69
2022/05/08 02:13:10;;;;;;;9.93;9.08;;;;;;;13.27;76.81;99594.52;1648085;87;21043;-63
2022/05/08 02:15:38;;;;;;;9.80;8.93;;;;;;;13.22;76.71;99592.11;1648127;87;21066;-67
2022/05/08 02:18:08;;;;;;;11.28;10.20;;;;;;;13.15;76.66;99594.67;1648271;87;20957;-66
2022/05/08 02:20:35;;;;;;;11.40;10.35;;;;;;;13.12;76.73;99595.53;1647984;87;21173;-67
2022/05/08 02:23:02;;;;;;;11.78;10.72;;;;;;;13.08;76.88;99599.59;1648300;87;20942;-66
2022/05/08 02:25:30;;;;;;;11.45;10.45;;;;;;;13.05;77.11;99595.91;1647915;87;21004;-64
2022/05/08 02:27:57;;;;;;;11.35;10.25;;;;;;;13.01;77.41;99601.62;1648258;87;21641;-65
2022/05/08 02:30:25;;;;;;;10.80;9.90;;;;;;;13.02;77.67;99601.12;1681267;84;21060;-69
2022/05/08 02:32:53;;;;;;;11.03;9.98;;;;;;;13.03;77.91;99600.12;1681961;85;21350;-68
2022/05/08 02:35:21;;;;;;;11.00;9.98;;;;;;;13.07;78.03;99605.94;1681987;85;21043;-68
2022/05/08 02:37:52;;;;;;;11.33;10.23;;;;;;;13.07;78.12;99604.10;1681941;85;21011;-66
2022/05/08 02:40:19;;;;;;;11.30;10.32;;;;;;;13.07;78.21;99610.78;1657969;85;21504;-66
2022/05/08 02:42:46;;;;;;;11.50;10.53;;;;;;;13.07;78.31;99609.44;1681828;84;21123;-65
2022/05/08 02:45:13;;;;;;;11.85;10.65;;;;;;;13.06;78.37;99611.78;1679009;85;21254;-63
2022/05/08 02:47:43;;;;;;;10.63;9.65;;;;;;;13.08;78.45;99616.45;1678728;85;20977;-64
2022/05/08 02:50:10;;;;;;;11.00;10.00;;;;;;;13.10;78.45;99614.92;1678964;84;20960;-67
2022/05/08 02:52:41;;;;;;;10.08;9.15;;;;;;;13.12;78.34;99616.89;1675466;85;21097;-66
2022/05/08 03:00:40;;;;;;;9.83;8.93;;;;;;;13.17;78.18;99626.52;1670418;85;21507;-67
2022/05/08 03:03:07;;;;;;;9.63;8.68;;;;;;;13.18;78.23;99627.69;1661713;85;20984;-66
2022/05/08 03:05:36;;;;;;;9.45;8.65;;;;;;;13.23;78.10;99629.31;1670399;85;21496;-66
2022/05/08 03:08:07;;;;;;;10.85;9.95;;;;;;;13.27;78.03;99627.91;1679231;85;20944;-66
2022/05/08 03:13:19;;;;;;;10.13;9.33;;;;;;;13.40;78.16;99632.11;1673948;85;21534;-64
2022/05/08 03:15:46;;;;;;;11.20;10.20;;;;;;;13.52;78.17;99633.32;1679118;85;20970;-66
2022/05/08 03:18:14;;;;;;;9.75;8.90;;;;;;;13.65;78.11;99632.66;1678605;85;20963;-67
2022/05/08 03:20:44;;;;;;;11.35;10.25;;;;;;;13.79;77.93;99632.33;1678993;85;22099;-65
2022/05/08 03:23:10;;;;;;;11.22;9.43;;;;;;;13.92;77.76;99635.97;1679001;85;21237;-66
2022/05/08 03:25:37;;;;;;;9.88;9.08;;;;;;;14.06;77.68;99641.80;1678988;85;21035;-66
2022/05/08 03:28:05;;;;;;;11.18;9.75;;;;;;;14.26;77.47;99645.22;1679091;85;20921;-68
2022/05/08 03:30:31;;;;;;;9.98;9.00;;;;;;;14.48;77.06;99634.34;1679053;85;20980;-67
2022/05/08 03:32:58;;;;;;;9.85;8.93;;;;;;;14.68;76.64;99638.03;1678663;85;20976;-66
2022/05/08 03:35:25;;;;;;;11.85;9.33;;;;;;;14.94;76.11;99636.61;1676009;85;21702;-64
2022/05/08 03:37:52;;;;;;;8.73;7.92;;;;;;;15.20;75.32;99644.84;1678384;85;20976;-68
2022/05/08 03:40:19;;;;;;;7.60;6.75;;;;;;;15.43;74.04;99641.38;1678873;85;20944;-67
2022/05/08 03:42:45;;;;;;;8.08;7.28;;;;;;;15.67;72.18;99643.59;1678469;85;21024;-66
2022/05/08 03:45:13;;;;;;;8.15;7.45;;;;;;;15.85;70.69;99651.13;1676628;85;20892;-65
2022/05/08 03:47:40;;;;;;;9.05;8.25;;;;;;;16.03;69.69;99652.20;1679009;85;21274;-66
2022/05/08 03:50:09;;;;;;;10.50;9.40;;;;;;;16.23;69.25;99654.13;1678896;85;21558;-65
2022/05/08 03:52:35;;;;;;;10.00;8.90;;;;;;;16.48;68.94;99652.02;1678973;85;20881;-65
2022/05/08 03:55:03;;;;;;;9.90;8.45;;;;;;;16.78;68.32;99657.89;1676738;85;21015;-64
2022/05/08 03:57:30;;;;;;;9.50;8.70;;;;;;;17.05;67.49;99659.53;1679139;85;20999;-64
2022/05/08 03:59:56;;;;;;;10.45;9.45;;;;;;;17.29;66.73;99654.86;1678998;85;21080;-66
2022/05/08 04:02:23;;;;;;;10.25;9.30;;;;;;;17.58;66.11;99655.45;1678713;85;21008;-65
2022/05/08 04:04:49;;;;;;;12.05;9.30;;;;;;;17.87;65.42;99657.64;1671147;85;20941;-65
2022/05/08 04:07:17;;;;;;;10.85;9.85;;;;;;;18.19;64.58;99659.38;1652886;85;20984;-66
2022/05/08 04:09:46;;;;;;;10.53;9.53;;;;;;;18.47;63.74;99664.42;1652153;85;21123;-65
2022/05/08 04:12:13;;;;;;;11.70;10.20;;;;;;;18.81;62.79;99657.25;1652589;85;21264;-67
2022/05/08 04:14:40;;;;;;;12.10;10.88;;;;;;;19.17;61.69;99655.69;1668045;85;21012;-68
2022/05/08 04:17:06;;;;;;;13.18;12.07;;;;;;;19.50;60.16;99657.60;1686314;85;21112;-68
2022/05/08 04:19:33;;;;;;;16.37;14.75;;;;;;;19.81;59.08;99662.86;1686356;85;21000;-64
2022/05/08 04:24:46;;;;;;;14.55;13.28;;;;;;;20.42;56.75;99658.66;1685851;85;22162;-66
2022/05/08 04:27:13;;;;;;;13.28;12.23;;;;;;;20.77;55.53;99658.26;1686228;84;20967;-68
2022/05/08 04:29:40;;;;;;;13.18;12.03;;;;;;;21.12;54.17;99656.17;1686462;84;21502;-67
2022/05/08 04:32:06;;;;;;;12.10;11.10;;;;;;;21.42;53.19;99656.88;1686194;85;21123;-68
2022/05/08 04:34:33;;;;;;;11.55;10.65;;;;;;;21.72;52.20;99658.89;1685951;84;21462;-67
2022/05/08 04:36:59;;;;;;;10.72;9.73;;;;;;;22.03;51.70;99657.14;1686404;85;21161;-68
2022/05/08 04:39:26;;;;;;;10.72;9.73;;;;;;;22.36;50.56;99660.52;1686448;84;20900;-68
2022/05/08 04:41:53;;;;;;;11.75;10.82;;;;;;;22.64;49.45;99659.70;1686330;85;20924;-65
2022/05/08 04:44:19;;;;;;;11.40;10.30;;;;;;;22.94;48.58;99655.35;1679343;83;21030;-66
2022/05/08 04:46:46;;;;;;;9.85;9.13;;;;;;;23.23;47.74;99659.07;1670147;86;20940;-66
2022/05/08 04:49:12;;;;;;;11.18;10.08;;;;;;;23.56;46.51;99662.33;1670250;86;21225;-66
2022/05/08 04:51:39;;;;;;;9.93;9.20;;;;;;;23.75;45.78;99656.07;1670087;86;21074;-68
2022/05/08 04:54:06;;;;;;;10.43;9.63;;;;;;;23.85;45.15;99654.84;1669852;85;20960;-67
2022/05/08 04:56:34;;;;;;;10.88;9.93;;;;;;;24.08;44.43;99657.34;1670013;86;21103;-67
2022/05/08 04:59:00;;;;;;;10.65;9.85;;;;;;;24.32;43.69;99656.53;1670219;86;21019;-68
2022/05/08 05:01:27;;;;;;;11.25;10.25;;;;;;;24.52;43.14;99662.17;1670231;85;21107;-68
2022/05/08 05:03:53;;;;;;;11.10;10.20;;;;;;;24.73;42.52;99662.66;1669876;86;21568;-66
2022/05/08 05:06:20;;;;;;;10.20;9.40;;;;;;;24.92;41.94;99662.61;1647622;86;20992;-67
2022/05/08 05:08:47;;;;;;;9.63;8.83;;;;;;;25.16;41.40;99661.16;1667191;86;21002;-67
2022/05/08 05:11:13;;;;;;;10.40;9.50;;;;;;;25.46;40.77;99656.50;1669263;86;20942;-66
2022/05/08 05:13:39;;;;;;;10.05;9.23;;;;;;;25.81;40.12;99658.63;1670034;84;21538;-67
2022/05/08 05:16:06;;;;;;;10.38;9.63;;;;;;;26.14;39.55;99659.61;1670047;86;20892;-69
2022/05/08 05:18:33;;;;;;;11.25;10.23;;;;;;;26.52;38.67;99652.88;1670125;86;21061;-70
2022/05/08 05:20:59;;;;;;;11.70;10.90;;;;;;;26.81;38.01;99655.42;1655020;86;21613;-68
2022/05/08 05:23:25;;;;;;;10.88;10.05;;;;;;;27.08;38.11;99648.34;1670168;85;21015;-70
2022/05/08 05:25:52;;;;;;;10.65;9.85;;;;;;;27.50;37.71;99658.97;1656051;86;21790;-68
2022/05/08 05:28:19;;;;;;;10.05;9.33;;;;;;;27.88;37.05;99661.05;1670139;86;20956;-66
2022/05/08 05:30:45;;;;;;;11.10;10.20;;;;;;;28.21;36.63;99656.03;1668695;86;20965;-68
2022/05/08 05:33:15;;;;;;;10.65;9.85;;;;;;;28.54;36.57;99664.32;1669991;86;20912;-70
2022/05/08 05:35:40;;;;;;;9.65;8.95;;;;;;;28.96;35.78;99655.57;1670062;85;20916;-69
2022/05/08 05:38:08;;;;;;;9.80;9.00;;;;;;;29.35;35.25;99650.87;1670038;85;22082;-70
2022/05/08 05:40:36;;;;;;;10.90;9.73;;;;;;;29.78;34.32;99653.17;1669605;86;20909;-67
2022/05/08 05:43:02;;;;;;;10.32;9.50;;;;;;;30.10;33.37;99651.69;1670195;85;21514;-67
2022/05/08 05:45:28;;;;;;;11.20;10.30;;;;;;;30.40;32.77;99652.70;1676163;84;21020;-68
2022/05/08 05:47:59;;;;;;;10.70;9.78;;;;;;;30.72;32.23;99655.51;1678773;85;20988;-66
2022/05/08 05:50:24;;;;;;;11.28;10.40;;;;;;;30.99;31.74;99650.17;1678419;85;21114;-65
2022/05/08 05:52:51;;;;;;;11.30;10.30;;;;;;;31.32;31.43;99651.52;1668164;85;20917;-67
2022/05/08 05:55:18;;;;;;;9.50;8.80;;;;;;;31.62;30.93;99649.63;1678782;85;20956;-69
2022/05/08 05:57:45;;;;;;;10.35;9.45;;;;;;;31.85;29.83;99656.05;1677106;85;21459;-67
2022/05/08 06:00:15;;;;;;;9.68;8.88;;;;;;;32.02;29.41;99652.96;1678917;85;20877;-67
2022/05/08 06:02:43;;;;;;;8.88;8.18;;;;;;;32.15;29.02;99648.56;1677017;85;21194;-65
2022/05/08 06:05:11;;;;;;;9.50;8.70;;;;;;;32.25;28.95;99656.05;1678687;85;20944;-69
2022/05/08 06:07:39;;;;;;;9.18;8.43;;;;;;;32.39;28.46;99650.52;1677408;85;20949;-66
2022/05/08 06:10:08;;;;;;;10.40;9.50;;;;;;;32.51;28.09;99648.06;1678769;85;21059;-66
2022/05/08 06:12:35;;;;;;;10.88;9.88;;;;;;;32.62;27.97;99654.15;1678262;85;21036;-66
2022/05/08 06:15:05;;;;;;;9.38;8.68;;;;;;;32.71;27.76;99658.63;1678894;85;20917;-66
2022/05/08 06:17:32;;;;;;;9.05;8.35;;;;;;;32.83;27.51;99651.99;1677653;85;21027;-64
2022/05/08 06:20:00;;;;;;;9.10;8.40;;;;;;;33.00;27.10;99653.25;1678963;85;20964;-65
2022/05/08 06:22:26;;;;;;;9.20;8.25;;;;;;;33.08;27.09;99651.98;1678437;85;21017;-66
2022/05/08 06:24:53;;;;;;;8.63;7.92;;;;;;;33.29;27.02;99651.70;1655481;85;21048;-67
2022/05/08 06:27:20;;;;;;;9.80;8.98;;;;;;;33.47;26.75;99649.29;1661127;85;22156;-66
2022/05/08 06:29:46;;;;;;;9.43;8.63;;;;;;;33.69;26.38;99645.67;1678756;85;20909;-66
2022/05/08 06:32:14;;;;;;;12.95;8.28;;;;;;;33.84;26.10;99649.97;1678890;85;21030;-69
2022/05/08 06:34:42;;;;;;;9.03;8.43;;;;;;;34.04;25.78;99651.57;1678241;84;20985;-66
2022/05/08 06:37:08;;;;;;;9.68;8.03;;;;;;;34.04;25.27;99651.57;1677673;85;21105;-65
2022/05/08 06:39:37;;;;;;;8.50;7.70;;;;;;;34.00;25.41;99644.23;1678803;85;21300;-66
2022/05/08 06:42:05;;;;;;;8.70;8.10;;;;;;;34.14;25.42;99647.16;1678825;85;20946;-66
2022/05/08 06:44:33;;;;;;;9.23;7.87;;;;;;;34.32;24.67;99650.76;1679125;84;21038;-67
2022/05/08 06:47:00;;;;;;;7.72;7.00;;;;;;;34.21;24.43;99645.29;1683792;85;20952;-65
2022/05/08 06:49:27;;;;;;;8.93;8.18;;;;;;;34.09;24.52;99650.63;1680450;85;21085;-66
2022/05/08 06:51:53;;;;;;;7.60;7.00;;;;;;;34.04;24.55;99655.71;1682094;85;21144;-67
2022/05/08 06:54:20;;;;;;;6.95;6.45;;;;;;;34.07;24.32;99655.67;1683996;83;21515;-68
2022/05/08 06:56:46;;;;;;;6.92;6.22;;;;;;;34.21;23.89;99650.02;1684009;84;21059;-67
2022/05/08 07:01:58;;;;;;;6.67;5.70;;;;;;;34.52;23.97;99651.51;1684270;84;20924;-70
2022/05/08 07:04:24;;;;;;;6.87;6.10;;;;;;;34.80;23.62;99651.23;1680146;85;21164;-64
2022/05/08 07:06:51;;;;;;;7.08;6.30;;;;;;;34.96;22.98;99651.80;1682904;85;21525;-67
2022/05/08 07:09:17;;;;;;;5.90;5.40;;;;;;;35.11;22.54;99644.41;1682745;85;20950;-65
2022/05/08 07:11:47;;;;;;;5.70;5.20;;;;;;;35.29;22.24;99648.76;1681823;85;21454;-66
2022/05/08 07:14:15;;;;;;;6.22;5.72;;;;;;;35.46;21.92;99649.86;1681305;85;21042;-67
2022/05/08 07:16:43;;;;;;;5.65;5.15;;;;;;;35.81;21.70;99652.75;1681263;85;21502;-66
2022/05/08 07:19:10;;;;;;;6.15;5.25;;;;;;;36.06;21.61;99651.83;1679538;85;21514;-66
2022/05/08 07:21:37;;;;;;;4.72;4.42;;;;;;;36.34;21.28;99646.62;1674966;84;21060;-70
2022/05/08 07:24:06;;;;;;;5.75;5.15;;;;;;;36.58;21.02;99644.61;1687804;83;20968;-70
2022/05/08 07:26:32;;;;;;;5.67;5.28;;;;;;;36.90;20.50;99646.59;1679506;85;20984;-68
2022/05/08 07:28:59;;;;;;;5.62;5.03;;;;;;;37.20;19.94;99652.30;1680455;85;21206;-69
2022/05/08 07:31:26;;;;;;;5.40;4.90;;;;;;;37.22;19.54;99654.71;1687318;83;20991;-66
2022/05/08 07:36:12;;;;;;;4.67;4.37;;;;;;;37.00;19.57;99650.36;1686964;83;21068;-69
2022/05/08 07:36:22;;;;;;;5.72;4.87;;;;;;;36.96;19.21;99653.59;1686488;83;21079;-65
2022/05/08 07:38:49;;;;;;;5.87;5.37;;;;;;;36.99;19.27;99646.80;1696855;83;21058;-68
2022/05/08 07:41:17;;;;;;;5.45;5.05;;;;;;;37.15;19.39;99648.92;1694927;83;21184;-64
2022/05/08 07:43:46;;;;;;;4.12;3.83;;;;;;;37.35;18.95;99651.64;1691963;83;20976;-64
2022/05/08 07:46:14;;;;;;;4.00;3.70;;;;;;;37.52;18.48;99647.90;1679923;84;21562;-67
2022/05/08 07:48:41;;;;;;;5.12;3.85;;;;;;;37.66;18.18;99648.36;1681026;84;21515;-64
2022/05/08 07:51:07;;;;;;;3.83;3.50;;;;;;;37.70;17.86;99657.03;1672122;85;21047;-68
2022/05/08 07:53:34;;;;;;;3.55;3.25;;;;;;;37.76;18.04;99653.45;1676649;85;21114;-66
2022/05/08 07:56:01;;;;;;;3.20;2.90;;;;;;;37.98;17.88;99651.66;1685698;84;20996;-65
2022/05/08 07:58:29;;;;;;;3.77;2.30;;;;;;;38.18;17.12;99649.31;1678461;85;21602;-63
2022/05/08 08:00:57;;;;;;;2.55;2.35;;;;;;;38.18;16.25;99656.27;1676944;85;21113;-64
2022/05/08 08:03:25;;;;;;;2.87;2.62;;;;;;;38.13;15.76;99651.52;1677721;85;21569;-67
2022/05/08 08:05:52;;;;;;;2.83;2.62;;;;;;;38.15;15.91;99653.36;1678253;85;21227;-62
2022/05/08 08:08:25;;;;;;;3.70;3.22;;;;;;;38.19;16.14;99652.34;1677785;85;21010;-64
2022/05/08 08:10:53;;;;;;;4.30;3.50;;;;;;;38.34;16.31;99649.44;1677683;85;20974;-67
2022/05/08 08:13:20;;;;;;;4.22;3.92;;;;;;;38.65;16.02;99650.98;1677141;85;21537;-66
2022/05/08 08:15:48;;;;;;;4.78;3.60;;;;;;;39.05;16.04;99649.59;1677459;85;21107;-66
2022/05/08 08:18:15;;;;;;;4.42;4.03;;;;;;;39.35;16.00;99650.02;1677120;85;21833;-66
2022/05/08 08:20:42;;;;;;;6.08;5.25;;;;;;;39.63;15.86;99646.64;1677469;85;21554;-67
2022/05/08 08:23:09;;;;;;;5.42;4.12;;;;;;;39.70;15.55;99648.21;1675883;85;21139;-67
2022/05/08 08:25:35;;;;;;;5.17;4.78;;;;;;;39.55;15.75;99642.03;1678254;85;21145;-64
2022/05/08 08:28:03;;;;;;;5.17;4.58;;;;;;;39.73;16.02;99645.29;1678566;84;21095;-64
2022/05/08 08:30:30;;;;;;;4.70;4.30;;;;;;;39.97;15.75;99645.09;1681372;84;21140;-67
2022/05/08 08:32:57;;;;;;;5.03;4.53;;;;;;;39.77;15.36;99648.38;1676043;85;21008;-65
2022/05/08 08:35:24;;;;;;;6.67;4.90;;;;;;;39.10;15.53;99651.30;1676491;85;21043;-65
2022/05/08 08:37:50;;;;;;;6.17;5.45;;;;;;;38.92;15.57;99652.20;1676370;85;21637;-66
2022/05/08 08:40:17;;;;;;;5.10;4.60;;;;;;;38.20;16.05;99659.49;1677964;85;21095;-66
2022/05/08 08:42:45;;;;;;;4.35;3.95;;;;;;;37.40;16.50;99655.61;1634585;85;21249;-65
2022/05/08 08:48:05;;;;;;;4.30;3.90;;;;;;;36.39;16.66;99656.11;1677654;85;21361;-66
2022/05/08 08:50:33;;;;;;;4.08;3.77;;;;;;;35.56;16.87;99656.44;1672450;85;21006;-65
2022/05/08 08:53:05;;;;;;;4.67;4.28;;;;;;;35.86;16.57;99651.17;1677020;85;21043;-65
2022/05/08 08:55:33;;;;;;;4.60;4.20;;;;;;;35.61;17.24;99656.26;1654425;85;21120;-65
2022/05/08 08:58:00;;;;;;;4.15;3.80;;;;;;;35.65;17.16;99655.82;1683649;83;20984;-64
2022/05/08 09:00:27;;;;;;;4.10;3.45;;;;;;;36.04;17.24;99651.36;1672338;83;21067;-69
2022/05/08 09:02:55;;;;;;;4.83;3.47;;;;;;;36.22;16.90;99653.44;1688802;83;21377;-69
2022/05/08 09:05:28;;;;;;;5.42;3.25;;;;;;;36.57;16.50;99649.90;1670375;83;21144;-66
2022/05/08 09:07:54;;;;;;;2.98;2.77;;;;;;;36.53;16.34;99650.35;1683150;85;22849;-65
2022/05/08 09:10:28;;;;;;;3.50;3.30;;;;;;;36.55;16.32;99654.97;1682965;85;21122;-67
2022/05/08 09:13:03;;;;;;;3.30;2.87;;;;;;;36.88;16.17;99657.22;1683053;85;21142;-68
2022/05/08 09:15:31;;;;;;;3.55;3.25;;;;;;;36.85;15.98;99655.12;1683588;84;21167;-62
2022/05/08 09:18:04;;;;;;;3.60;2.70;;;;;;;37.04;15.81;99654.08;1681073;85;21015;-65
2022/05/08 09:20:34;;;;;;;3.55;2.90;;;;;;;37.13;15.89;99652.83;1684097;85;21762;-72
2022/05/08 09:23:10;;;;;;;4.53;4.12;;;;;;;37.07;15.80;99650.63;1684264;84;20952;-68
2022/05/08 09:25:48;;;;;;;;;;;;;;;37.34;16.17;99652.78;1686589;85;20908;-64
2022/05/08 09:28:27;;;;;;;5.22;3.20;;;;;;;37.97;15.58;99651.41;1678110;85;20441;-65
2022/05/08 09:31:09;;;;;;;4.45;2.42;;;;;;;38.43;15.05;99647.92;1677314;85;20980;-65
2022/05/08 09:33:51;;;;;;;3.17;2.87;;;;;;;39.11;14.82;99647.37;1684048;85;21202;-67
2022/05/08 09:36:24;;;;;;;4.17;2.80;;;;;;;39.82;14.17;99642.53;1687549;83;21003;-66
2022/05/08 09:38:55;;;;;;;4.30;3.08;;;;;;;40.33;13.39;99639.79;1684701;85;20912;-71
2022/05/08 09:41:29;;;;;;;4.08;3.67;;;;;;;40.71;12.98;99646.82;1684713;85;21819;-65
2022/05/08 09:44:13;;;;;;;4.05;3.40;;;;;;;40.84;12.76;99631.55;1647120;87;20960;-68
2022/05/08 09:46:46;;;;;;;3.15;2.70;;;;;;;40.97;12.80;99636.41;1648601;87;21184;-65
2022/05/08 09:49:15;;;;;;;3.58;3.02;;;;;;;41.27;12.70;99640.98;1650174;87;20981;-68
2022/05/08 09:51:42;;;;;;;4.45;2.67;;;;;;;41.51;12.46;99647.45;1650081;87;21443;-66
2022/05/08 09:54:09;;;;;;;2.37;2.15;;;;;;;41.57;12.53;99637.56;1603268;87;21036;-64
2022/05/08 09:56:36;;;;;;;3.35;2.58;;;;;;;41.53;12.36;99647.88;1647845;87;20982;-69
2022/05/08 09:59:10;;;;;;;2.85;2.52;;;;;;;41.34;12.17;99641.75;1695208;84;21302;-66
2022/05/08 10:01:42;;;;;;;7.97;6.92;;;;;;;40.93;12.49;99632.18;1686950;84;20992;-65
2022/05/08 10:04:08;;;;;;;3.40;2.75;;;;;;;40.75;12.86;99640.75;1696679;84;20980;-69
2022/05/08 10:06:38;;;;;;;4.35;3.00;;;;;;;39.78;12.96;99636.66;1667302;84;20967;-67
2022/05/08 10:14:37;;;;;;;4.53;1.90;;;;;;;37.05;15.03;99638.48;1641710;86;21469;-65
2022/05/08 10:17:08;;;;;;;3.08;2.10;;;;;;;36.54;15.30;99637.53;1647297;86;21012;-64
2022/05/08 10:19:40;;;;;;;2.30;2.10;;;;;;;36.06;15.93;99637.20;1632759;87;20969;-66
2022/05/08 10:22:09;;;;;;;2.30;2.10;;;;;;;35.51;16.45;99634.46;1594430;88;20993;-67
2022/05/08 10:24:53;;;;;;;2.30;2.10;;;;;;;34.76;17.07;99624.81;1666698;84;21198;-65
2022/05/08 10:27:24;;;;;;;2.40;1.90;;;;;;;34.09;17.98;99629.38;1639194;86;21487;-66
2022/05/08 10:29:56;;;;;;;4.58;1.90;;;;;;;33.52;18.48;99624.34;1605346;87;20949;-65
2022/05/08 10:32:36;;;;;;;1.87;1.72;;;;;;;33.02;18.48;99625.63;1681350;84;20964;-66
2022/05/08 10:35:22;;;;;;;2.30;1.70;;;;;;;32.64;18.77;99632.64;1668550;85;20936;-63
2022/05/08 10:37:54;;;;;;;;;;;;;;;32.29;18.64;99627.35;1643360;87;21179;-65
2022/05/08 10:40:30;;;;;;;2.50;1.77;;;;;;;31.97;18.97;99624.16;1642241;87;20109;-66
2022/05/08 10:42:58;;;;;;;2.17;1.60;;;;;;;31.72;19.01;99626.05;1641554;87;20971;-66
2022/05/08 10:45:37;;;;;;;1.62;1.45;;;;;;;31.36;18.99;99625.90;1641340;87;20940;-65
2022/05/08 10:48:20;;;;;;;4.37;2.02;;;;;;;31.08;19.29;99626.93;1607045;89;21485;-66
2022/05/08 10:50:54;;;;;;;2.87;1.42;;;;;;;30.76;19.54;99617.30;1607508;89;21297;-65
2022/05/08 10:53:32;;;;;;;2.50;1.70;;;;;;;30.42;19.89;99619.73;1607155;89;20974;-66
2022/05/08 10:56:08;;;;;;;2.35;1.67;;;;;;;30.26;20.01;99614.17;1607191;89;21026;-65
2022/05/08 10:58:38;;;;;;;2.22;1.70;;;;;;;30.12;20.22;99611.88;1607218;89;20963;-66
2022/05/08 11:01:09;;;;;;;2.05;1.90;;;;;;;29.95;20.50;99606.91;1607229;89;20927;-65
2022/05/08 11:03:37;;;;;;;2.95;2.15;;;;;;;29.81;20.76;99607.35;1607241;89;21265;-67
2022/05/08 11:06:05;;;;;;;2.67;1.50;;;;;;;29.65;21.19;99607.23;1607025;89;21012;-65
2022/05/08 11:08:35;;;;;;;3.05;2.00;;;;;;;29.38;21.63;99609.17;1607272;89;20935;-63
2022/05/08 11:11:08;;;;;;;2.85;1.98;;;;;;;29.17;21.93;99601.43;1607182;89;21022;-68
2022/05/08 11:13:48;;;;;;;3.02;1.65;;;;;;;29.12;21.87;99596.80;1607233;89;20939;-63
2022/05/08 11:16:41;;;;;;;1.62;1.52;;;;;;;29.07;21.67;99594.11;1607157;89;21260;-65
2022/05/08 11:19:07;;;;;;;3.40;2.70;;;;;;;28.98;21.76;99590.37;1607052;89;21090;-64
2022/05/08 11:21:34;;;;;;;2.80;2.17;;;;;;;28.84;22.47;99579.81;1607083;89;20971;-65
2022/05/08 11:24:02;;;;;;;1.67;1.57;;;;;;;28.68;23.01;99583.77;1607137;89;21066;-65
2022/05/08 11:26:32;;;;;;;3.05;2.00;;;;;;;28.64;23.21;99585.46;1607145;89;21110;-65
2022/05/08 11:29:00;;;;;;;3.10;1.98;;;;;;;28.62;23.29;99584.94;1606527;89;22353;-65
2022/05/08 11:31:28;;;;;;;1.70;1.60;;;;;;;28.60;22.96;99580.27;1607282;89;20978;-65
2022/05/08 11:36:44;;;;;;;2.12;1.90;;;;;;;28.50;22.96;99568.01;1607218;89;21481;-66
2022/05/08 11:39:18;;;;;;;2.40;1.60;;;;;;;28.53;22.98;99568.81;1607086;89;21013;-66
2022/05/08 11:41:51;;;;;;;1.77;1.67;;;;;;;28.54;22.72;99566.36;1607140;89;21483;-66
2022/05/08 11:44:28;;;;;;;3.42;2.10;;;;;;;28.63;23.11;99565.48;1607132;89;20963;-67
2022/05/08 11:46:55;;;;;;;2.15;1.80;;;;;;;28.78;23.25;99563.73;1615950;86;21083;-64
2022/05/08 11:49:30;;;;;;;3.70;1.87;;;;;;;28.82;23.06;99557.39;1630105;88;21004;-63
2022/05/08 11:52:03;;;;;;;3.22;1.82;;;;;;;28.89;23.27;99552.39;1629900;88;21533;-65
2022/05/08 11:54:32;;;;;;;3.37;1.80;;;;;;;28.95;23.43;99555.35;1629243;87;21276;-64
2022/05/08 11:57:21;;;;;;;2.27;2.08;;;;;;;28.98;23.00;99554.78;1629874;88;21542;-65
2022/05/08 11:59:50;;;;;;;2.22;1.60;;;;;;;28.91;22.53;99540.62;1630011;86;21608;-68
2022/05/08 12:02:17;;;;;;;1.92;1.82;;;;;;;28.81;22.79;99546.16;1630017;86;20948;-65